<?xml version="1.0"?>
<gpx xmlns="http://www.topografix.com/GPX/1/1" xmlns:xsi="http://www.w3.org/2001/XMLSchema-instance" xmlns:wptx1="http://www.garmin.com/xmlschemas/WaypointExtension/v1" xmlns:gpxtrx="http://www.garmin.com/xmlschemas/GpxExtensions/v3" xmlns:gpxtpx="http://www.garmin.com/xmlschemas/TrackPointExtension/v1" xmlns:gpxx="http://www.garmin.com/xmlschemas/GpxExtensions/v3" xmlns:trp="http://www.garmin.com/xmlschemas/TripExtensions/v1" xmlns:adv="http://www.garmin.com/xmlschemas/AdventuresExtensions/v1" xmlns:prs="http://www.garmin.com/xmlschemas/PressureExtension/v1" xmlns:tmd="http://www.garmin.com/xmlschemas/TripMetaDataExtensions/v1" xmlns:vptm="http://www.garmin.com/xmlschemas/ViaPointTransportationModeExtensions/v1" xmlns:ctx="http://www.garmin.com/xmlschemas/CreationTimeExtension/v1" xmlns:gpxacc="http://www.garmin.com/xmlschemas/AccelerationExtension/v1" xmlns:gpxpx="http://www.garmin.com/xmlschemas/PowerExtension/v1" xmlns:vidx1="http://www.garmin.com/xmlschemas/VideoExtension/v1" creator="Garmin Desktop App" version="1.1" xsi:schemaLocation="http://www.topografix.com/GPX/1/1 http://www.topografix.com/GPX/1/1/gpx.xsd http://www.garmin.com/xmlschemas/WaypointExtension/v1 http://www8.garmin.com/xmlschemas/WaypointExtensionv1.xsd http://www.garmin.com/xmlschemas/TrackPointExtension/v1 http://www.garmin.com/xmlschemas/TrackPointExtensionv1.xsd http://www.garmin.com/xmlschemas/GpxExtensions/v3 http://www8.garmin.com/xmlschemas/GpxExtensionsv3.xsd http://www.garmin.com/xmlschemas/ActivityExtension/v1 http://www8.garmin.com/xmlschemas/ActivityExtensionv1.xsd http://www.garmin.com/xmlschemas/AdventuresExtensions/v1 http://www8.garmin.com/xmlschemas/AdventuresExtensionv1.xsd http://www.garmin.com/xmlschemas/PressureExtension/v1 http://www.garmin.com/xmlschemas/PressureExtensionv1.xsd http://www.garmin.com/xmlschemas/TripExtensions/v1 http://www.garmin.com/xmlschemas/TripExtensionsv1.xsd http://www.garmin.com/xmlschemas/TripMetaDataExtensions/v1 http://www.garmin.com/xmlschemas/TripMetaDataExtensionsv1.xsd http://www.garmin.com/xmlschemas/ViaPointTransportationModeExtensions/v1 http://www.garmin.com/xmlschemas/ViaPointTransportationModeExtensionsv1.xsd http://www.garmin.com/xmlschemas/CreationTimeExtension/v1 http://www.garmin.com/xmlschemas/CreationTimeExtensionsv1.xsd http://www.garmin.com/xmlschemas/AccelerationExtension/v1 http://www.garmin.com/xmlschemas/AccelerationExtensionv1.xsd http://www.garmin.com/xmlschemas/PowerExtension/v1 http://www.garmin.com/xmlschemas/PowerExtensionv1.xsd http://www.garmin.com/xmlschemas/VideoExtension/v1 http://www.garmin.com/xmlschemas/VideoExtensionv1.xsd">

  <metadata>
    <link href="http://www.garmin.com">
      <text>Garmin International</text>
    </link>
    <time>2018-02-26T07:10:21Z</time>
    <bounds maxlat="12.921086540445685" maxlon="99.697092175483704" minlat="12.866205191239715" minlon="99.648650055751204"/>
  </metadata>

  <wpt lat="12.902078814804554" lon="99.681993015110493">
    <ele>107</ele>
    <name>KaengKrachan</name>
    <cmt>25-JAN-14 11:20:25</cmt>
    <desc>25-JAN-14 11:20:25</desc>
    <sym>Lodging</sym>
    <type>user</type>
    <extensions>
      <gpxx:WaypointExtension>
        <gpxx:DisplayMode>SymbolOnly</gpxx:DisplayMode>
      </gpxx:WaypointExtension>
      <wptx1:WaypointExtension>
        <wptx1:DisplayMode>SymbolOnly</wptx1:DisplayMode>
      </wptx1:WaypointExtension>
    </extensions>
  </wpt>

  <wpt lat="12.886081533506513" lon="99.672602349892259">
    <ele>45</ele>
    <name>Sun Water</name>
    <cmt>26-JAN-14 10:58:40</cmt>
    <desc>26-JAN-14 10:58:40</desc>
    <sym>Drinking Water</sym>
    <type>user</type>
    <extensions>
      <gpxx:WaypointExtension>
        <gpxx:DisplayMode>SymbolOnly</gpxx:DisplayMode>
      </gpxx:WaypointExtension>
      <wptx1:WaypointExtension>
        <wptx1:DisplayMode>SymbolOnly</wptx1:DisplayMode>
      </wptx1:WaypointExtension>
    </extensions>
  </wpt>

  <trk>
    <name>Sunday 004</name>
    <extensions>
      <gpxx:TrackExtension>
        <gpxx:DisplayColor>Green</gpxx:DisplayColor>
      </gpxx:TrackExtension>
    </extensions>
    <trkseg>
      <trkpt lat="12.900048466399312" lon="99.680555770173669">
        <ele>105.8824462890625</ele>
        <time>2014-01-26T03:01:52Z</time>
      </trkpt>
      <trkpt lat="12.899843696504831" lon="99.678991958498955">
        <ele>105.4017333984375</ele>
        <time>2014-01-26T03:02:48Z</time>
      </trkpt>
      <trkpt lat="12.899535493925214" lon="99.677884709089994">
        <ele>105.8824462890625</ele>
        <time>2014-01-26T03:03:22Z</time>
      </trkpt>
      <trkpt lat="12.899728361517191" lon="99.67779410071671">
        <ele>107.8050537109375</ele>
        <time>2014-01-26T03:03:32Z</time>
      </trkpt>
      <trkpt lat="12.900011083111167" lon="99.677950339391828">
        <ele>110.6888427734375</ele>
        <time>2014-01-26T03:03:50Z</time>
      </trkpt>
      <trkpt lat="12.900700913742185" lon="99.678195593878627">
        <ele>114.0535888671875</ele>
        <time>2014-01-26T03:04:26Z</time>
      </trkpt>
      <trkpt lat="12.900910461321473" lon="99.678657101467252">
        <ele>115.014892578125</ele>
        <time>2014-01-26T03:04:47Z</time>
      </trkpt>
      <trkpt lat="12.901496523991227" lon="99.679349362850189">
        <ele>112.611572265625</ele>
        <time>2014-01-26T03:05:08Z</time>
      </trkpt>
      <trkpt lat="12.901600040495396" lon="99.680162156000733">
        <ele>110.6888427734375</ele>
        <time>2014-01-26T03:05:26Z</time>
      </trkpt>
      <trkpt lat="12.901821490377188" lon="99.680313281714916">
        <ele>110.6888427734375</ele>
        <time>2014-01-26T03:05:33Z</time>
      </trkpt>
      <trkpt lat="12.903607171028852" lon="99.679597215726972">
        <ele>101.07568359375</ele>
        <time>2014-01-26T03:06:07Z</time>
      </trkpt>
      <trkpt lat="12.903880840167403" lon="99.679821515455842">
        <ele>97.711181640625</ele>
        <time>2014-01-26T03:06:15Z</time>
      </trkpt>
      <trkpt lat="12.904640911146998" lon="99.67976083047688">
        <ele>95.7884521484375</ele>
        <time>2014-01-26T03:06:36Z</time>
      </trkpt>
      <trkpt lat="12.906285105273128" lon="99.680030811578035">
        <ele>94.8271484375</ele>
        <time>2014-01-26T03:07:16Z</time>
      </trkpt>
      <trkpt lat="12.906945515424013" lon="99.680343372747302">
        <ele>97.23046875</ele>
        <time>2014-01-26T03:07:39Z</time>
      </trkpt>
      <trkpt lat="12.907042913138866" lon="99.680922729894519">
        <ele>97.711181640625</ele>
        <time>2014-01-26T03:07:52Z</time>
      </trkpt>
      <trkpt lat="12.90732940658927" lon="99.6814348641783">
        <ele>101.556396484375</ele>
        <time>2014-01-26T03:08:05Z</time>
      </trkpt>
      <trkpt lat="12.90801596827805" lon="99.681250881403685">
        <ele>107.8050537109375</ele>
        <time>2014-01-26T03:08:46Z</time>
      </trkpt>
      <trkpt lat="12.908128788694739" lon="99.68160049058497">
        <ele>110.6888427734375</ele>
        <time>2014-01-26T03:09:02Z</time>
      </trkpt>
      <trkpt lat="12.908507147803903" lon="99.681449783965945">
        <ele>111.1695556640625</ele>
        <time>2014-01-26T03:09:15Z</time>
      </trkpt>
      <trkpt lat="12.908700937405229" lon="99.681332437321544">
        <ele>110.6888427734375</ele>
        <time>2014-01-26T03:09:20Z</time>
      </trkpt>
      <trkpt lat="12.908690040931106" lon="99.681061869487166">
        <ele>110.208251953125</ele>
        <time>2014-01-26T03:09:27Z</time>
      </trkpt>
      <trkpt lat="12.908180085942149" lon="99.680037349462509">
        <ele>103.959716796875</ele>
        <time>2014-01-26T03:09:46Z</time>
      </trkpt>
      <trkpt lat="12.90788009762764" lon="99.678827840834856">
        <ele>97.23046875</ele>
        <time>2014-01-26T03:10:02Z</time>
      </trkpt>
      <trkpt lat="12.908081263303757" lon="99.677221532911062">
        <ele>90.98193359375</ele>
        <time>2014-01-26T03:10:22Z</time>
      </trkpt>
      <trkpt lat="12.909637950360775" lon="99.67265859246254">
        <ele>82.810791015625</ele>
        <time>2014-01-26T03:11:22Z</time>
      </trkpt>
      <trkpt lat="12.909775916486979" lon="99.672441501170397">
        <ele>83.2913818359375</ele>
        <time>2014-01-26T03:11:26Z</time>
      </trkpt>
      <trkpt lat="12.910652160644531" lon="99.671843452379107">
        <ele>83.2913818359375</ele>
        <time>2014-01-26T03:11:45Z</time>
      </trkpt>
      <trkpt lat="12.911245515570045" lon="99.671104671433568">
        <ele>78.0040283203125</ele>
        <time>2014-01-26T03:12:00Z</time>
      </trkpt>
      <trkpt lat="12.911566961556673" lon="99.670042935758829">
        <ele>73.67822265625</ele>
        <time>2014-01-26T03:12:16Z</time>
      </trkpt>
      <trkpt lat="12.911514407023787" lon="99.669264676049352">
        <ele>71.7554931640625</ele>
        <time>2014-01-26T03:12:28Z</time>
      </trkpt>
      <trkpt lat="12.912140199914575" lon="99.669099468737841">
        <ele>69.352294921875</ele>
        <time>2014-01-26T03:12:45Z</time>
      </trkpt>
      <trkpt lat="12.917580809444189" lon="99.66912092640996">
        <ele>90.98193359375</ele>
        <time>2014-01-26T03:16:28Z</time>
      </trkpt>
      <trkpt lat="12.918435344472528" lon="99.669406581670046">
        <ele>95.3077392578125</ele>
        <time>2014-01-26T03:17:02Z</time>
      </trkpt>
      <trkpt lat="12.919153589755297" lon="99.669810589402914">
        <ele>97.23046875</ele>
        <time>2014-01-26T03:17:32Z</time>
      </trkpt>
      <trkpt lat="12.92034599930048" lon="99.669996332377195">
        <ele>103.47900390625</ele>
        <time>2014-01-26T03:18:24Z</time>
      </trkpt>
      <trkpt lat="12.92071295902133" lon="99.66971704736352">
        <ele>101.07568359375</ele>
        <time>2014-01-26T03:18:41Z</time>
      </trkpt>
      <trkpt lat="12.920776661485434" lon="99.668846921995282">
        <ele>100.5950927734375</ele>
        <time>2014-01-26T03:19:06Z</time>
      </trkpt>
      <trkpt lat="12.921022335067391" lon="99.668451128527522">
        <ele>101.556396484375</ele>
        <time>2014-01-26T03:19:19Z</time>
      </trkpt>
      <trkpt lat="12.921086540445685" lon="99.66824971139431">
        <ele>101.556396484375</ele>
        <time>2014-01-26T03:19:27Z</time>
      </trkpt>
      <trkpt lat="12.920273831114173" lon="99.667969588190317">
        <ele>94.3465576171875</ele>
        <time>2014-01-26T03:19:58Z</time>
      </trkpt>
      <trkpt lat="12.920370390638709" lon="99.667497435584664">
        <ele>92.904541015625</ele>
        <time>2014-01-26T03:20:12Z</time>
      </trkpt>
      <trkpt lat="12.919642338529229" lon="99.666813723742962">
        <ele>86.656005859375</ele>
        <time>2014-01-26T03:20:45Z</time>
      </trkpt>
      <trkpt lat="12.919581485912204" lon="99.666186422109604">
        <ele>88.0980224609375</ele>
        <time>2014-01-26T03:21:17Z</time>
      </trkpt>
      <trkpt lat="12.919555166736245" lon="99.666014090180397">
        <ele>84.7333984375</ele>
        <time>2014-01-26T03:21:40Z</time>
      </trkpt>
      <trkpt lat="12.919557094573975" lon="99.665740840137005">
        <ele>82.810791015625</ele>
        <time>2014-01-26T03:21:57Z</time>
      </trkpt>
      <trkpt lat="12.919403035193682" lon="99.664667369797826">
        <ele>81.849365234375</ele>
        <time>2014-01-26T03:23:06Z</time>
      </trkpt>
      <trkpt lat="12.916431650519371" lon="99.664562931284308">
        <ele>71.7554931640625</ele>
        <time>2014-01-26T03:24:06Z</time>
      </trkpt>
      <trkpt lat="12.915812395513058" lon="99.663235740736127">
        <ele>69.8328857421875</ele>
        <time>2014-01-26T03:24:57Z</time>
      </trkpt>
      <trkpt lat="12.915184255689383" lon="99.66291974298656">
        <ele>67.4296875</ele>
        <time>2014-01-26T03:25:14Z</time>
      </trkpt>
      <trkpt lat="12.914229892194271" lon="99.662703489884734">
        <ele>65.0263671875</ele>
        <time>2014-01-26T03:25:37Z</time>
      </trkpt>
      <trkpt lat="12.914405912160873" lon="99.660692419856787">
        <ele>66.46826171875</ele>
        <time>2014-01-26T03:26:31Z</time>
      </trkpt>
      <trkpt lat="12.914109360426664" lon="99.659429183229804">
        <ele>64.0650634765625</ele>
        <time>2014-01-26T03:26:59Z</time>
      </trkpt>
      <trkpt lat="12.914258977398276" lon="99.657665127888322">
        <ele>61.6617431640625</ele>
        <time>2014-01-26T03:27:39Z</time>
      </trkpt>
      <trkpt lat="12.914216481149197" lon="99.657243099063635">
        <ele>61.6617431640625</ele>
        <time>2014-01-26T03:27:51Z</time>
      </trkpt>
      <trkpt lat="12.913692025467753" lon="99.656181363388896">
        <ele>60.7003173828125</ele>
        <time>2014-01-26T03:28:21Z</time>
      </trkpt>
      <trkpt lat="12.913661515340209" lon="99.65559714473784">
        <ele>62.142333984375</ele>
        <time>2014-01-26T03:28:37Z</time>
      </trkpt>
      <trkpt lat="12.913778610527515" lon="99.654369531199336">
        <ele>61.6617431640625</ele>
        <time>2014-01-26T03:29:06Z</time>
      </trkpt>
      <trkpt lat="12.913997378200293" lon="99.654137520119548">
        <ele>62.142333984375</ele>
        <time>2014-01-26T03:29:16Z</time>
      </trkpt>
      <trkpt lat="12.914280015975237" lon="99.653456993401051">
        <ele>61.6617431640625</ele>
        <time>2014-01-26T03:29:32Z</time>
      </trkpt>
      <trkpt lat="12.914256881922483" lon="99.653227999806404">
        <ele>61.6617431640625</ele>
        <time>2014-01-26T03:29:38Z</time>
      </trkpt>
      <trkpt lat="12.914026295766234" lon="99.652967993170023">
        <ele>62.6229248046875</ele>
        <time>2014-01-26T03:29:45Z</time>
      </trkpt>
      <trkpt lat="12.913854299113154" lon="99.652717793360353">
        <ele>62.142333984375</ele>
        <time>2014-01-26T03:29:51Z</time>
      </trkpt>
      <trkpt lat="12.913827309384942" lon="99.650912834331393">
        <ele>66.948974609375</ele>
        <time>2014-01-26T03:30:52Z</time>
      </trkpt>
      <trkpt lat="12.912540016695857" lon="99.650934711098671">
        <ele>70.3134765625</ele>
        <time>2014-01-26T03:31:28Z</time>
      </trkpt>
      <trkpt lat="12.911736695095897" lon="99.650972429662943">
        <ele>67.4296875</ele>
        <time>2014-01-26T03:31:43Z</time>
      </trkpt>
      <trkpt lat="12.911188015714288" lon="99.651163620874286">
        <ele>69.352294921875</ele>
        <time>2014-01-26T03:31:53Z</time>
      </trkpt>
      <trkpt lat="12.91045568883419" lon="99.650910068303347">
        <ele>74.1588134765625</ele>
        <time>2014-01-26T03:32:16Z</time>
      </trkpt>
      <trkpt lat="12.90978429839015" lon="99.651237297803164">
        <ele>76.5621337890625</ele>
        <time>2014-01-26T03:32:44Z</time>
      </trkpt>
      <trkpt lat="12.908619549125433" lon="99.651547679677606">
        <ele>68.87158203125</ele>
        <time>2014-01-26T03:33:11Z</time>
      </trkpt>
      <trkpt lat="12.907386319711804" lon="99.652071548625827">
        <ele>59.7391357421875</ele>
        <time>2014-01-26T03:33:37Z</time>
      </trkpt>
      <trkpt lat="12.907057497650385" lon="99.651976078748703">
        <ele>58.7777099609375</ele>
        <time>2014-01-26T03:33:44Z</time>
      </trkpt>
      <trkpt lat="12.906471854075789" lon="99.65123126283288">
        <ele>57.8165283203125</ele>
        <time>2014-01-26T03:34:03Z</time>
      </trkpt>
      <trkpt lat="12.906430279836059" lon="99.649090692400932">
        <ele>59.7391357421875</ele>
        <time>2014-01-26T03:34:47Z</time>
      </trkpt>
      <trkpt lat="12.906326595693827" lon="99.649011567234993">
        <ele>59.2584228515625</ele>
        <time>2014-01-26T03:34:51Z</time>
      </trkpt>
      <trkpt lat="12.903877319768071" lon="99.648963119834661">
        <ele>55.893798828125</ele>
        <time>2014-01-26T03:35:43Z</time>
      </trkpt>
      <trkpt lat="12.902237148955464" lon="99.648650055751204">
        <ele>54.4517822265625</ele>
        <time>2014-01-26T03:36:14Z</time>
      </trkpt>
      <trkpt lat="12.902130782604218" lon="99.649142660200596">
        <ele>55.893798828125</ele>
        <time>2014-01-26T03:36:34Z</time>
      </trkpt>
      <trkpt lat="12.902230275794864" lon="99.649640209972858">
        <ele>56.8551025390625</ele>
        <time>2014-01-26T03:36:49Z</time>
      </trkpt>
      <trkpt lat="12.902026260271668" lon="99.649852104485035">
        <ele>54.932373046875</ele>
        <time>2014-01-26T03:37:02Z</time>
      </trkpt>
      <trkpt lat="12.901732055470347" lon="99.649942629039288">
        <ele>55.4130859375</ele>
        <time>2014-01-26T03:37:16Z</time>
      </trkpt>
      <trkpt lat="12.901287646964192" lon="99.649689076468349">
        <ele>54.932373046875</ele>
        <time>2014-01-26T03:37:35Z</time>
      </trkpt>
      <trkpt lat="12.900978857651353" lon="99.64964222162962">
        <ele>53.490478515625</ele>
        <time>2014-01-26T03:37:46Z</time>
      </trkpt>
      <trkpt lat="12.900647940114141" lon="99.650032985955477">
        <ele>53.97119140625</ele>
        <time>2014-01-26T03:38:20Z</time>
      </trkpt>
      <trkpt lat="12.900433279573917" lon="99.650095598772168">
        <ele>53.97119140625</ele>
        <time>2014-01-26T03:38:33Z</time>
      </trkpt>
      <trkpt lat="12.900054920464754" lon="99.650309588760138">
        <ele>53.009765625</ele>
        <time>2014-01-26T03:38:48Z</time>
      </trkpt>
      <trkpt lat="12.899890383705497" lon="99.651718167588115">
        <ele>55.4130859375</ele>
        <time>2014-01-26T03:39:32Z</time>
      </trkpt>
      <trkpt lat="12.90031517855823" lon="99.652092671021819">
        <ele>58.7777099609375</ele>
        <time>2014-01-26T03:40:08Z</time>
      </trkpt>
      <trkpt lat="12.900610892102122" lon="99.652238180860877">
        <ele>60.2197265625</ele>
        <time>2014-01-26T03:41:02Z</time>
      </trkpt>
      <trkpt lat="12.900271005928516" lon="99.652101555839181">
        <ele>60.2197265625</ele>
        <time>2014-01-26T03:41:29Z</time>
      </trkpt>
      <trkpt lat="12.89987345226109" lon="99.65292482636869">
        <ele>70.3134765625</ele>
        <time>2014-01-26T03:42:30Z</time>
      </trkpt>
      <trkpt lat="12.899584025144577" lon="99.653605101630092">
        <ele>76.0814208984375</ele>
        <time>2014-01-26T03:43:37Z</time>
      </trkpt>
      <trkpt lat="12.899674633517861" lon="99.65350778773427">
        <ele>74.6395263671875</ele>
        <time>2014-01-26T03:43:48Z</time>
      </trkpt>
      <trkpt lat="12.900204537436366" lon="99.653862677514553">
        <ele>62.6229248046875</ele>
        <time>2014-01-26T03:44:24Z</time>
      </trkpt>
      <trkpt lat="12.899978142231703" lon="99.654402052983642">
        <ele>61.1810302734375</ele>
        <time>2014-01-26T03:45:00Z</time>
      </trkpt>
      <trkpt lat="12.899862891063094" lon="99.656023029237986">
        <ele>56.8551025390625</ele>
        <time>2014-01-26T03:45:34Z</time>
      </trkpt>
      <trkpt lat="12.899097204208374" lon="99.65801976621151">
        <ele>60.2197265625</ele>
        <time>2014-01-26T03:46:21Z</time>
      </trkpt>
      <trkpt lat="12.898681126534939" lon="99.658171227201819">
        <ele>61.1810302734375</ele>
        <time>2014-01-26T03:46:32Z</time>
      </trkpt>
      <trkpt lat="12.897817539051175" lon="99.657643083482981">
        <ele>63.1036376953125</ele>
        <time>2014-01-26T03:46:53Z</time>
      </trkpt>
      <trkpt lat="12.896462185308337" lon="99.657081998884678">
        <ele>60.7003173828125</ele>
        <time>2014-01-26T03:47:18Z</time>
      </trkpt>
      <trkpt lat="12.894475171342492" lon="99.657670073211193">
        <ele>58.297119140625</ele>
        <time>2014-01-26T03:48:02Z</time>
      </trkpt>
      <trkpt lat="12.892817482352257" lon="99.657540656626225">
        <ele>54.932373046875</ele>
        <time>2014-01-26T03:48:27Z</time>
      </trkpt>
      <trkpt lat="12.892490839585662" lon="99.657845674082637">
        <ele>55.4130859375</ele>
        <time>2014-01-26T03:48:35Z</time>
      </trkpt>
      <trkpt lat="12.892065122723579" lon="99.658696688711643">
        <ele>53.97119140625</ele>
        <time>2014-01-26T03:48:50Z</time>
      </trkpt>
      <trkpt lat="12.891508145257831" lon="99.659709390252829">
        <ele>50.6065673828125</ele>
        <time>2014-01-26T03:49:06Z</time>
      </trkpt>
      <trkpt lat="12.890218673273921" lon="99.661303125321865">
        <ele>49.16455078125</ele>
        <time>2014-01-26T03:49:40Z</time>
      </trkpt>
      <trkpt lat="12.891243612393737" lon="99.662921587005258">
        <ele>53.490478515625</ele>
        <time>2014-01-26T03:50:26Z</time>
      </trkpt>
      <trkpt lat="12.890873467549682" lon="99.66359012760222">
        <ele>58.297119140625</ele>
        <time>2014-01-26T03:51:05Z</time>
      </trkpt>
      <trkpt lat="12.890709349885583" lon="99.664091030135751">
        <ele>59.2584228515625</ele>
        <time>2014-01-26T03:51:22Z</time>
      </trkpt>
      <trkpt lat="12.890575239434838" lon="99.664848502725363">
        <ele>53.97119140625</ele>
        <time>2014-01-26T03:51:41Z</time>
      </trkpt>
      <trkpt lat="12.891301363706589" lon="99.665023684501648">
        <ele>51.087158203125</ele>
        <time>2014-01-26T03:52:09Z</time>
      </trkpt>
      <trkpt lat="12.891315780580044" lon="99.665691973641515">
        <ele>51.56787109375</ele>
        <time>2014-01-26T03:52:51Z</time>
      </trkpt>
      <trkpt lat="12.891476796939969" lon="99.666008306667209">
        <ele>53.490478515625</ele>
        <time>2014-01-26T03:53:04Z</time>
      </trkpt>
      <trkpt lat="12.891337405890226" lon="99.66622925363481">
        <ele>53.490478515625</ele>
        <time>2014-01-26T03:53:15Z</time>
      </trkpt>
      <trkpt lat="12.890757545828819" lon="99.666146440431476">
        <ele>50.1259765625</ele>
        <time>2014-01-26T03:53:28Z</time>
      </trkpt>
      <trkpt lat="12.890362422913313" lon="99.66641491279006">
        <ele>47.2418212890625</ele>
        <time>2014-01-26T03:53:37Z</time>
      </trkpt>
      <trkpt lat="12.890213811770082" lon="99.668031446635723">
        <ele>52.048583984375</ele>
        <time>2014-01-26T03:54:16Z</time>
      </trkpt>
      <trkpt lat="12.889871243387461" lon="99.669019086286426">
        <ele>53.97119140625</ele>
        <time>2014-01-26T03:54:42Z</time>
      </trkpt>
      <trkpt lat="12.890176428481936" lon="99.669427452608943">
        <ele>52.048583984375</ele>
        <time>2014-01-26T03:55:08Z</time>
      </trkpt>
      <trkpt lat="12.889054929837584" lon="99.672143524512649">
        <ele>52.048583984375</ele>
        <time>2014-01-26T03:56:15Z</time>
      </trkpt>
      <trkpt lat="12.888572299852967" lon="99.672931842505932">
        <ele>52.5291748046875</ele>
        <time>2014-01-26T03:56:38Z</time>
      </trkpt>
      <trkpt lat="12.888249177485704" lon="99.67323275282979">
        <ele>52.048583984375</ele>
        <time>2014-01-26T03:56:47Z</time>
      </trkpt>
      <trkpt lat="12.887992188334465" lon="99.673200817778707">
        <ele>51.087158203125</ele>
        <time>2014-01-26T03:56:53Z</time>
      </trkpt>
      <trkpt lat="12.887657163664699" lon="99.672800162807107">
        <ele>51.56787109375</ele>
        <time>2014-01-26T03:57:06Z</time>
      </trkpt>
      <trkpt lat="12.887297999113798" lon="99.673020271584392">
        <ele>52.048583984375</ele>
        <time>2014-01-26T03:57:17Z</time>
      </trkpt>
      <trkpt lat="12.886465927585959" lon="99.673862317577004">
        <ele>49.645263671875</ele>
        <time>2014-01-26T03:57:40Z</time>
      </trkpt>
      <trkpt lat="12.885645171627402" lon="99.673291761428118">
        <ele>49.16455078125</ele>
        <time>2014-01-26T03:58:10Z</time>
      </trkpt>
      <trkpt lat="12.885589767247438" lon="99.673077184706926">
        <ele>47.7225341796875</ele>
        <time>2014-01-26T03:58:15Z</time>
      </trkpt>
      <trkpt lat="12.885877098888159" lon="99.672671919688582">
        <ele>45.7999267578125</ele>
        <time>2014-01-26T03:58:28Z</time>
      </trkpt>
      <trkpt lat="12.886077426373959" lon="99.672601176425815">
        <ele>44.838623046875</ele>
        <time>2014-01-26T03:58:42Z</time>
      </trkpt>
      <trkpt lat="12.886056890711188" lon="99.672662196680903">
        <ele>40.993408203125</ele>
        <time>2014-01-26T03:59:25Z</time>
      </trkpt>
      <trkpt lat="12.885984219610691" lon="99.672683570533991">
        <ele>25.1317138671875</ele>
        <time>2014-01-26T04:04:09Z</time>
      </trkpt>
      <trkpt lat="12.886080527678132" lon="99.672773089259863">
        <ele>63.5843505859375</ele>
        <time>2014-01-26T04:05:52Z</time>
      </trkpt>
      <trkpt lat="12.885966952890158" lon="99.672722294926643">
        <ele>54.932373046875</ele>
        <time>2014-01-26T04:15:50Z</time>
      </trkpt>
      <trkpt lat="12.885588174685836" lon="99.673219006508589">
        <ele>49.645263671875</ele>
        <time>2014-01-26T04:16:23Z</time>
      </trkpt>
      <trkpt lat="12.885864526033401" lon="99.673435427248478">
        <ele>52.048583984375</ele>
        <time>2014-01-26T04:16:39Z</time>
      </trkpt>
      <trkpt lat="12.886281609535217" lon="99.67390657402575">
        <ele>50.6065673828125</ele>
        <time>2014-01-26T04:17:03Z</time>
      </trkpt>
      <trkpt lat="12.886216817423701" lon="99.674110589548945">
        <ele>50.6065673828125</ele>
        <time>2014-01-26T04:17:10Z</time>
      </trkpt>
      <trkpt lat="12.885174443945289" lon="99.675188586115837">
        <ele>48.6839599609375</ele>
        <time>2014-01-26T04:18:00Z</time>
      </trkpt>
      <trkpt lat="12.885669060051441" lon="99.67565244063735">
        <ele>53.490478515625</ele>
        <time>2014-01-26T04:18:44Z</time>
      </trkpt>
      <trkpt lat="12.884992472827435" lon="99.676276640966535">
        <ele>53.490478515625</ele>
        <time>2014-01-26T04:19:11Z</time>
      </trkpt>
      <trkpt lat="12.883452381938696" lon="99.678976032882929">
        <ele>55.893798828125</ele>
        <time>2014-01-26T04:20:09Z</time>
      </trkpt>
      <trkpt lat="12.881855210289359" lon="99.680084371939301">
        <ele>61.1810302734375</ele>
        <time>2014-01-26T04:21:02Z</time>
      </trkpt>
      <trkpt lat="12.880429616197944" lon="99.681297987699509">
        <ele>57.3358154296875</ele>
        <time>2014-01-26T04:21:30Z</time>
      </trkpt>
      <trkpt lat="12.879814635962248" lon="99.681897461414337">
        <ele>59.7391357421875</ele>
        <time>2014-01-26T04:21:51Z</time>
      </trkpt>
      <trkpt lat="12.879582960158587" lon="99.682273557409644">
        <ele>65.507080078125</ele>
        <time>2014-01-26T04:22:05Z</time>
      </trkpt>
      <trkpt lat="12.879729392006993" lon="99.682480087503791">
        <ele>58.297119140625</ele>
        <time>2014-01-26T04:22:33Z</time>
      </trkpt>
      <trkpt lat="12.879709275439382" lon="99.682194013148546">
        <ele>61.1810302734375</ele>
        <time>2014-01-26T04:23:29Z</time>
      </trkpt>
      <trkpt lat="12.879894347861409" lon="99.681761506944895">
        <ele>59.7391357421875</ele>
        <time>2014-01-26T04:24:13Z</time>
      </trkpt>
      <trkpt lat="12.879005614668131" lon="99.682459635660052">
        <ele>57.3358154296875</ele>
        <time>2014-01-26T04:24:48Z</time>
      </trkpt>
      <trkpt lat="12.878577802330256" lon="99.682480171322823">
        <ele>59.2584228515625</ele>
        <time>2014-01-26T04:25:09Z</time>
      </trkpt>
      <trkpt lat="12.877170313149691" lon="99.68297990038991">
        <ele>57.3358154296875</ele>
        <time>2014-01-26T04:25:47Z</time>
      </trkpt>
      <trkpt lat="12.875557132065296" lon="99.683188693597913">
        <ele>62.142333984375</ele>
        <time>2014-01-26T04:26:17Z</time>
      </trkpt>
      <trkpt lat="12.874163473024964" lon="99.683233872056007">
        <ele>61.6617431640625</ele>
        <time>2014-01-26T04:26:42Z</time>
      </trkpt>
      <trkpt lat="12.871842607855797" lon="99.682248244062066">
        <ele>58.297119140625</ele>
        <time>2014-01-26T04:27:35Z</time>
      </trkpt>
      <trkpt lat="12.869999427348375" lon="99.685311997309327">
        <ele>59.7391357421875</ele>
        <time>2014-01-26T04:29:47Z</time>
      </trkpt>
      <trkpt lat="12.871685279533267" lon="99.687271770089865">
        <ele>70.794189453125</ele>
        <time>2014-01-26T04:31:47Z</time>
      </trkpt>
      <trkpt lat="12.871724171563983" lon="99.687478300184011">
        <ele>75.1202392578125</ele>
        <time>2014-01-26T04:32:07Z</time>
      </trkpt>
      <trkpt lat="12.871425859630108" lon="99.687573770061135">
        <ele>76.5621337890625</ele>
        <time>2014-01-26T04:32:41Z</time>
      </trkpt>
      <trkpt lat="12.871318068355322" lon="99.687459859997034">
        <ele>76.0814208984375</ele>
        <time>2014-01-26T04:32:56Z</time>
      </trkpt>
      <trkpt lat="12.871118662878871" lon="99.687679465860128">
        <ele>74.1588134765625</ele>
        <time>2014-01-26T04:33:12Z</time>
      </trkpt>
      <trkpt lat="12.870344594120979" lon="99.68900179490447">
        <ele>71.7554931640625</ele>
        <time>2014-01-26T04:34:18Z</time>
      </trkpt>
      <trkpt lat="12.870196988806129" lon="99.689232129603624">
        <ele>70.3134765625</ele>
        <time>2014-01-26T04:34:27Z</time>
      </trkpt>
      <trkpt lat="12.86960287950933" lon="99.688970781862736">
        <ele>65.507080078125</ele>
        <time>2014-01-26T04:34:48Z</time>
      </trkpt>
      <trkpt lat="12.868626303970814" lon="99.68892409466207">
        <ele>57.8165283203125</ele>
        <time>2014-01-26T04:35:18Z</time>
      </trkpt>
      <trkpt lat="12.868149960413575" lon="99.689112771302462">
        <ele>54.932373046875</ele>
        <time>2014-01-26T04:35:35Z</time>
      </trkpt>
      <trkpt lat="12.868256997317076" lon="99.690591003745794">
        <ele>57.3358154296875</ele>
        <time>2014-01-26T04:36:14Z</time>
      </trkpt>
      <trkpt lat="12.867989698424935" lon="99.691121075302362">
        <ele>60.2197265625</ele>
        <time>2014-01-26T04:36:41Z</time>
      </trkpt>
      <trkpt lat="12.86784628406167" lon="99.691712083294988">
        <ele>60.2197265625</ele>
        <time>2014-01-26T04:37:00Z</time>
      </trkpt>
      <trkpt lat="12.866586819291115" lon="99.692594949156046">
        <ele>47.7225341796875</ele>
        <time>2014-01-26T04:37:45Z</time>
      </trkpt>
      <trkpt lat="12.866205191239715" lon="99.69235472381115">
        <ele>45.7999267578125</ele>
        <time>2014-01-26T04:37:58Z</time>
      </trkpt>
      <trkpt lat="12.86622941493988" lon="99.692516913637519">
        <ele>45.7999267578125</ele>
        <time>2014-01-26T04:38:06Z</time>
      </trkpt>
      <trkpt lat="12.866577263921499" lon="99.692844478413463">
        <ele>48.6839599609375</ele>
        <time>2014-01-26T04:38:23Z</time>
      </trkpt>
      <trkpt lat="12.866810280829668" lon="99.693641429767013">
        <ele>61.1810302734375</ele>
        <time>2014-01-26T04:39:10Z</time>
      </trkpt>
      <trkpt lat="12.866850094869733" lon="99.693711083382368">
        <ele>61.6617431640625</ele>
        <time>2014-01-26T04:39:15Z</time>
      </trkpt>
      <trkpt lat="12.86829630844295" lon="99.694743985310197">
        <ele>53.97119140625</ele>
        <time>2014-01-26T04:40:06Z</time>
      </trkpt>
      <trkpt lat="12.872873162850738" lon="99.69351033680141">
        <ele>52.048583984375</ele>
        <time>2014-01-26T04:41:58Z</time>
      </trkpt>
      <trkpt lat="12.874263972043991" lon="99.693232560530305">
        <ele>48.203369140625</ele>
        <time>2014-01-26T04:42:44Z</time>
      </trkpt>
      <trkpt lat="12.874274952337146" lon="99.692740626633167">
        <ele>58.297119140625</ele>
        <time>2014-01-26T04:43:16Z</time>
      </trkpt>
      <trkpt lat="12.873687213286757" lon="99.691876787692308">
        <ele>68.87158203125</ele>
        <time>2014-01-26T04:44:17Z</time>
      </trkpt>
      <trkpt lat="12.875281618908048" lon="99.691060977056623">
        <ele>60.2197265625</ele>
        <time>2014-01-26T04:45:38Z</time>
      </trkpt>
      <trkpt lat="12.878327770158648" lon="99.690387826412916">
        <ele>56.8551025390625</ele>
        <time>2014-01-26T04:47:03Z</time>
      </trkpt>
      <trkpt lat="12.879188423976302" lon="99.690201077610254">
        <ele>52.048583984375</ele>
        <time>2014-01-26T04:47:22Z</time>
      </trkpt>
      <trkpt lat="12.879586312919855" lon="99.6899707429111">
        <ele>52.5291748046875</ele>
        <time>2014-01-26T04:47:36Z</time>
      </trkpt>
      <trkpt lat="12.879631407558918" lon="99.689725823700428">
        <ele>53.490478515625</ele>
        <time>2014-01-26T04:47:45Z</time>
      </trkpt>
      <trkpt lat="12.87999945692718" lon="99.689472774043679">
        <ele>61.1810302734375</ele>
        <time>2014-01-26T04:48:02Z</time>
      </trkpt>
      <trkpt lat="12.880323836579919" lon="99.689744515344501">
        <ele>67.9102783203125</ele>
        <time>2014-01-26T04:48:15Z</time>
      </trkpt>
      <trkpt lat="12.880929596722126" lon="99.690464604645967">
        <ele>68.390869140625</ele>
        <time>2014-01-26T04:48:43Z</time>
      </trkpt>
      <trkpt lat="12.880936888977885" lon="99.691037256270647">
        <ele>72.7169189453125</ele>
        <time>2014-01-26T04:49:04Z</time>
      </trkpt>
      <trkpt lat="12.88086480461061" lon="99.691381333395839">
        <ele>71.7554931640625</ele>
        <time>2014-01-26T04:49:15Z</time>
      </trkpt>
      <trkpt lat="12.88089900277555" lon="99.69144101254642">
        <ele>71.27490234375</ele>
        <time>2014-01-26T04:49:18Z</time>
      </trkpt>
      <trkpt lat="12.881584139540792" lon="99.691389463841915">
        <ele>69.8328857421875</ele>
        <time>2014-01-26T04:49:50Z</time>
      </trkpt>
      <trkpt lat="12.880900343880057" lon="99.691797662526369">
        <ele>64.0650634765625</ele>
        <time>2014-01-26T04:50:20Z</time>
      </trkpt>
      <trkpt lat="12.88083890452981" lon="99.691948369145393">
        <ele>64.545654296875</ele>
        <time>2014-01-26T04:50:25Z</time>
      </trkpt>
      <trkpt lat="12.881097821518779" lon="99.693642016500235">
        <ele>65.507080078125</ele>
        <time>2014-01-26T04:51:08Z</time>
      </trkpt>
      <trkpt lat="12.88110913708806" lon="99.694462940096855">
        <ele>63.1036376953125</ele>
        <time>2014-01-26T04:51:32Z</time>
      </trkpt>
      <trkpt lat="12.88139739073813" lon="99.694747505709529">
        <ele>64.545654296875</ele>
        <time>2014-01-26T04:51:45Z</time>
      </trkpt>
      <trkpt lat="12.882048077881336" lon="99.695118991658092">
        <ele>61.6617431640625</ele>
        <time>2014-01-26T04:52:04Z</time>
      </trkpt>
      <trkpt lat="12.882862128317356" lon="99.695233069360256">
        <ele>67.9102783203125</ele>
        <time>2014-01-26T04:52:25Z</time>
      </trkpt>
      <trkpt lat="12.883787071332335" lon="99.695566752925515">
        <ele>62.6229248046875</ele>
        <time>2014-01-26T04:52:56Z</time>
      </trkpt>
      <trkpt lat="12.886557374149561" lon="99.697092175483704">
        <ele>63.1036376953125</ele>
        <time>2014-01-26T04:54:30Z</time>
      </trkpt>
      <trkpt lat="12.887480305507779" lon="99.695992385968566">
        <ele>71.7554931640625</ele>
        <time>2014-01-26T04:55:19Z</time>
      </trkpt>
      <trkpt lat="12.888449504971504" lon="99.694856973364949">
        <ele>77.0428466796875</ele>
        <time>2014-01-26T04:56:02Z</time>
      </trkpt>
      <trkpt lat="12.889016624540091" lon="99.69428725540638">
        <ele>77.5234375</ele>
        <time>2014-01-26T04:56:20Z</time>
      </trkpt>
      <trkpt lat="12.893382674083114" lon="99.692937098443508">
        <ele>83.2913818359375</ele>
        <time>2014-01-26T04:58:09Z</time>
      </trkpt>
      <trkpt lat="12.895177658647299" lon="99.692327817901969">
        <ele>79.9266357421875</ele>
        <time>2014-01-26T04:58:39Z</time>
      </trkpt>
      <trkpt lat="12.896621441468596" lon="99.691551821306348">
        <ele>85.2139892578125</ele>
        <time>2014-01-26T04:59:17Z</time>
      </trkpt>
      <trkpt lat="12.897446220740676" lon="99.690814716741443">
        <ele>86.17529296875</ele>
        <time>2014-01-26T04:59:39Z</time>
      </trkpt>
      <trkpt lat="12.898248620331287" lon="99.689525747671723">
        <ele>92.4239501953125</ele>
        <time>2014-01-26T05:00:17Z</time>
      </trkpt>
      <trkpt lat="12.898606192320585" lon="99.688697531819344">
        <ele>91.4625244140625</ele>
        <time>2014-01-26T05:00:33Z</time>
      </trkpt>
      <trkpt lat="12.899276660755277" lon="99.686361076310277">
        <ele>95.7884521484375</ele>
        <time>2014-01-26T05:01:24Z</time>
      </trkpt>
      <trkpt lat="12.899987865239382" lon="99.684702884405851">
        <ele>93.8658447265625</ele>
        <time>2014-01-26T05:01:58Z</time>
      </trkpt>
      <trkpt lat="12.901095114648342" lon="99.683485245332122">
        <ele>94.3465576171875</ele>
        <time>2014-01-26T05:02:27Z</time>
      </trkpt>
      <trkpt lat="12.901088241487741" lon="99.683209313079715">
        <ele>95.7884521484375</ele>
        <time>2014-01-26T05:02:34Z</time>
      </trkpt>
      <trkpt lat="12.900221133604646" lon="99.681559754535556">
        <ele>100.5950927734375</ele>
        <time>2014-01-26T05:03:19Z</time>
      </trkpt>
      <trkpt lat="12.900560852140188" lon="99.681213162839413">
        <ele>102.998291015625</ele>
        <time>2014-01-26T05:03:33Z</time>
      </trkpt>
      <trkpt lat="12.900750702247024" lon="99.681313075125217">
        <ele>107.8050537109375</ele>
        <time>2014-01-26T05:04:08Z</time>
      </trkpt>
      <trkpt lat="12.900579879060388" lon="99.681448275223374">
        <ele>111.1695556640625</ele>
        <time>2014-01-26T05:06:27Z</time>
      </trkpt>
      <trkpt lat="12.90103736333549" lon="99.681799057871103">
        <ele>105.8824462890625</ele>
        <time>2014-01-26T05:06:57Z</time>
      </trkpt>
      <trkpt lat="12.901977058500051" lon="99.682045821100473">
        <ele>106.8436279296875</ele>
        <time>2014-01-26T05:07:45Z</time>
      </trkpt>
    </trkseg>
  </trk>

</gpx>
